Time;durP1;ratioP1;P1;durP2;ratioP2;P2;SDS_P1;SDS_P2;PMS_P1;PMS_P2;Temp;Humidity;BMP_temperature;BMP_pressure;BME280_temperature;BME280_humidity;BME280_pressure;Samples;Min_cycle;Max_cycle;Signal;HPM_P1;HPM_P2
2022/10/21 00:00:54;;;;;;;35.90;21.90;;;;;;;;;;5054577;28;20048;-78
2022/10/21 00:03:21;;;;;;;42.33;23.48;;;;;;;;;;5054350;28;20045;-78
2022/10/21 00:05:48;;;;;;;42.65;23.38;;;;;;;;;;5054031;28;20037;-77
2022/10/21 00:08:14;;;;;;;39.13;22.77;;;;;;;;;;5053910;28;20484;-78
2022/10/21 00:10:41;;;;;;;38.80;23.45;;;;;;;;;;5053949;28;20396;-77
2022/10/21 00:13:07;;;;;;;39.72;23.75;;;;;;;;;;5053967;28;20102;-77
2022/10/21 00:15:33;;;;;;;38.67;23.50;;;;;;;;;;5054168;28;20457;-78
2022/10/21 00:17:59;;;;;;;39.42;22.25;;;;;;;;;;5053389;28;20471;-77
2022/10/21 00:20:25;;;;;;;41.72;23.95;;;;;;;;;;5050102;28;20124;-77
2022/10/21 00:22:51;;;;;;;44.45;22.95;;;;;;;;;;5054567;28;20068;-77
2022/10/21 00:25:17;;;;;;;40.17;24.05;;;;;;;;;;5053403;28;20439;-77
2022/10/21 00:27:43;;;;;;;44.53;24.20;;;;;;;;;;5053777;28;20392;-77
2022/10/21 00:30:11;;;;;;;42.13;23.38;;;;;;;;;;5053984;28;20048;-77
2022/10/21 00:32:37;;;;;;;48.30;24.42;;;;;;;;;;5053241;28;20498;-77
2022/10/21 00:35:03;;;;;;;41.15;23.55;;;;;;;;;;5053350;28;20079;-77
2022/10/21 00:37:30;;;;;;;43.95;25.00;;;;;;;;;;5053586;28;20051;-78
2022/10/21 00:39:56;;;;;;;40.50;22.98;;;;;;;;;;5053163;28;20072;-78
2022/10/21 00:42:22;;;;;;;44.70;24.80;;;;;;;;;;5053703;28;20468;-78
2022/10/21 00:45:21;;;;;;;45.03;23.77;;;;;;;;;;5054003;28;20044;-78
2022/10/21 00:47:51;;;;;;;42.30;23.52;;;;;;;;;;5041251;28;20114;-78
2022/10/21 00:50:36;;;;;;;44.20;23.90;;;;;;;;;;5053597;28;20053;-78
2022/10/21 00:53:03;;;;;;;36.20;22.10;;;;;;;;;;5053068;28;20084;-77
2022/10/21 00:55:31;;;;;;;40.58;24.33;;;;;;;;;;5053681;28;20119;-77
2022/10/21 00:57:57;;;;;;;43.60;23.02;;;;;;;;;;5053340;28;20075;-78
2022/10/21 01:00:24;;;;;;;41.40;23.23;;;;;;;;;;5052783;28;20385;-77
2022/10/21 01:02:50;;;;;;;41.53;23.30;;;;;;;;;;5053259;28;20392;-78
2022/10/21 01:05:16;;;;;;;47.70;24.17;;;;;;;;;;5041522;28;20124;-77
2022/10/21 01:07:43;;;;;;;42.50;23.48;;;;;;;;;;5032824;28;20052;-77
2022/10/21 01:10:09;;;;;;;44.55;23.10;;;;;;;;;;5033932;28;20080;-78
2022/10/21 01:12:43;;;;;;;49.55;24.83;;;;;;;;;;5039671;28;20417;-77
2022/10/21 01:15:20;;;;;;;45.10;25.40;;;;;;;;;;5053247;28;20037;-77
2022/10/21 01:17:46;;;;;;;44.53;24.52;;;;;;;;;;5053775;28;20120;-77
2022/10/21 01:20:12;;;;;;;45.65;25.17;;;;;;;;;;5048012;28;20500;-77
2022/10/21 01:22:44;;;;;;;50.78;25.83;;;;;;;;;;5033707;28;20038;-78
2022/10/21 01:25:31;;;;;;;45.75;24.73;;;;;;;;;;5033141;28;20038;-78
2022/10/21 01:27:57;;;;;;;45.88;24.80;;;;;;;;;;5033106;28;20477;-77
2022/10/21 01:30:23;;;;;;;44.53;24.50;;;;;;;;;;5033037;28;20037;-77
2022/10/21 01:32:55;;;;;;;44.10;24.58;;;;;;;;;;5033718;28;20042;-77
2022/10/21 01:35:40;;;;;;;53.40;25.40;;;;;;;;;;5045093;28;20504;-77
2022/10/21 01:38:17;;;;;;;42.85;24.42;;;;;;;;;;5052774;28;20037;-77
2022/10/21 01:40:48;;;;;;;41.78;24.73;;;;;;;;;;5052991;28;20456;-77
2022/10/21 01:43:18;;;;;;;47.63;25.15;;;;;;;;;;5052987;28;20055;-77
2022/10/21 01:45:44;;;;;;;48.53;24.00;;;;;;;;;;5053379;28;20041;-77
2022/10/21 01:48:13;;;;;;;45.20;25.50;;;;;;;;;;5052793;28;20554;-77
2022/10/21 01:50:42;;;;;;;45.20;25.38;;;;;;;;;;5053947;28;20060;-77
2022/10/21 01:53:10;;;;;;;49.88;25.98;;;;;;;;;;5056780;28;20388;-78
2022/10/21 01:55:37;;;;;;;52.92;26.08;;;;;;;;;;5020305;28;20063;-77
2022/10/21 01:58:05;;;;;;;61.50;28.35;;;;;;;;;;5037204;28;20045;-77
2022/10/21 02:00:32;;;;;;;52.20;26.17;;;;;;;;;;5036455;28;20045;-77
2022/10/21 02:02:59;;;;;;;47.72;25.38;;;;;;;;;;5036790;28;20050;-77
2022/10/21 02:05:28;;;;;;;48.13;25.52;;;;;;;;;;5036907;28;20060;-77
2022/10/21 02:07:54;;;;;;;47.97;25.70;;;;;;;;;;5054879;28;20056;-77
2022/10/21 02:10:21;;;;;;;51.10;26.25;;;;;;;;;;5037722;28;20492;-77
2022/10/21 02:12:49;;;;;;;50.08;26.52;;;;;;;;;;5036257;28;20049;-78
2022/10/21 02:15:15;;;;;;;49.50;26.02;;;;;;;;;;5036017;28;20052;-78
2022/10/21 02:17:44;;;;;;;55.45;27.33;;;;;;;;;;5036678;28;20045;-77
2022/10/21 02:20:11;;;;;;;54.97;26.23;;;;;;;;;;5036703;28;20107;-78
2022/10/21 02:22:38;;;;;;;47.55;25.33;;;;;;;;;;5036769;28;20045;-77
2022/10/21 02:25:06;;;;;;;48.45;25.73;;;;;;;;;;5055115;28;20037;-77
2022/10/21 02:27:32;;;;;;;48.80;25.88;;;;;;;;;;5037560;28;20392;-77
2022/10/21 02:29:59;;;;;;;57.38;26.63;;;;;;;;;;5035908;28;20488;-78
2022/10/21 02:32:35;;;;;;;49.28;26.15;;;;;;;;;;5035980;28;20041;-77
2022/10/21 02:35:13;;;;;;;45.72;25.10;;;;;;;;;;5036148;28;20037;-77
2022/10/21 02:37:58;;;;;;;49.45;26.33;;;;;;;;;;5036164;28;20042;-77
2022/10/21 02:40:28;;;;;;;48.25;25.92;;;;;;;;;;5054722;28;20122;-78
2022/10/21 02:42:56;;;;;;;47.22;25.52;;;;;;;;;;5058352;28;20041;-78
2022/10/21 02:45:23;;;;;;;47.25;27.42;;;;;;;;;;5060260;28;20080;-77
2022/10/21 02:47:49;;;;;;;52.83;26.23;;;;;;;;;;5040166;28;20046;-78
2022/10/21 02:50:16;;;;;;;48.95;26.70;;;;;;;;;;5056171;28;20178;-77
2022/10/21 02:52:42;;;;;;;47.83;26.50;;;;;;;;;;5055292;28;20106;-77
2022/10/21 02:55:08;;;;;;;53.55;26.23;;;;;;;;;;5055870;28;20052;-78
2022/10/21 02:57:34;;;;;;;52.97;26.55;;;;;;;;;;5055734;28;20063;-77
2022/10/21 03:00:00;;;;;;;54.60;26.85;;;;;;;;;;5055501;28;20047;-75
2022/10/21 03:02:26;;;;;;;56.30;28.23;;;;;;;;;;5055766;28;20049;-75
2022/10/21 03:04:52;;;;;;;52.53;28.17;;;;;;;;;;5056903;28;20048;-74
2022/10/21 03:07:18;;;;;;;58.65;28.27;;;;;;;;;;5055661;28;20123;-75
2022/10/21 03:09:44;;;;;;;54.45;27.25;;;;;;;;;;5054176;28;20052;-75
2022/10/21 03:12:10;;;;;;;53.33;26.83;;;;;;;;;;5055181;28;20051;-75
2022/10/21 03:14:37;;;;;;;52.97;26.85;;;;;;;;;;5054115;28;20399;-75
2022/10/21 03:17:02;;;;;;;56.13;27.92;;;;;;;;;;5053886;28;20400;-75
2022/10/21 03:19:29;;;;;;;51.50;28.25;;;;;;;;;;5055435;28;20472;-75
2022/10/21 03:21:55;;;;;;;52.85;27.02;;;;;;;;;;5055383;28;20041;-75
2022/10/21 03:24:21;;;;;;;54.40;26.05;;;;;;;;;;5044714;28;20042;-75
2022/10/21 03:26:47;;;;;;;55.90;26.08;;;;;;;;;;5034597;28;20046;-75
2022/10/21 03:29:13;;;;;;;54.90;26.63;;;;;;;;;;5033675;28;20052;-75
2022/10/21 03:31:39;;;;;;;54.33;26.00;;;;;;;;;;5034805;28;20128;-75
2022/10/21 03:34:05;;;;;;;56.65;26.05;;;;;;;;;;5059474;28;20117;-75
2022/10/21 03:36:31;;;;;;;47.92;25.75;;;;;;;;;;5055063;28;20120;-75
2022/10/21 03:38:57;;;;;;;52.90;25.58;;;;;;;;;;5053099;28;20044;-76
2022/10/21 03:41:23;;;;;;;54.63;25.85;;;;;;;;;;5053603;28;20068;-76
2022/10/21 03:43:49;;;;;;;57.15;26.65;;;;;;;;;;5054739;28;20142;-76
2022/10/21 03:46:15;;;;;;;55.17;26.35;;;;;;;;;;5054625;28;20452;-75
2022/10/21 03:48:41;;;;;;;49.63;25.23;;;;;;;;;;5054526;28;20055;-75
2022/10/21 03:51:07;;;;;;;53.97;26.88;;;;;;;;;;5054398;28;20040;-75
2022/10/21 03:53:33;;;;;;;53.65;26.48;;;;;;;;;;5045050;28;20104;-76
2022/10/21 03:55:59;;;;;;;51.45;25.95;;;;;;;;;;5033100;28;20049;-76
2022/10/21 03:58:27;;;;;;;56.22;27.00;;;;;;;;;;5034364;28;20042;-76
2022/10/21 04:00:53;;;;;;;58.42;28.02;;;;;;;;;;5035033;28;20053;-76
2022/10/21 04:03:19;;;;;;;61.80;27.73;;;;;;;;;;5045608;28;20072;-76
2022/10/21 04:05:45;;;;;;;60.65;29.13;;;;;;;;;;5054108;28;20049;-76
2022/10/21 04:08:11;;;;;;;61.45;28.40;;;;;;;;;;5052254;28;20072;-76
2022/10/21 04:10:37;;;;;;;60.58;27.25;;;;;;;;;;5053039;28;20076;-76
2022/10/21 04:13:03;;;;;;;54.25;27.60;;;;;;;;;;5053423;28;20385;-76
2022/10/21 04:15:29;;;;;;;56.78;26.63;;;;;;;;;;5053550;28;20515;-77
2022/10/21 04:17:55;;;;;;;61.95;27.48;;;;;;;;;;5052767;28;20436;-77
2022/10/21 04:20:21;;;;;;;55.55;24.95;;;;;;;;;;5053201;28;20072;-77
2022/10/21 04:22:47;;;;;;;54.70;25.35;;;;;;;;;;5059496;28;20468;-77
2022/10/21 04:25:13;;;;;;;56.92;26.10;;;;;;;;;;5062606;28;20045;-77
2022/10/21 04:27:39;;;;;;;48.60;24.17;;;;;;;;;;5036408;28;20216;-77
2022/10/21 04:30:06;;;;;;;54.15;24.13;;;;;;;;;;5053676;28;20540;-77
2022/10/21 04:32:32;;;;;;;53.08;23.17;;;;;;;;;;5053704;28;20043;-77
2022/10/21 04:34:58;;;;;;;50.08;24.15;;;;;;;;;;5053870;28;20045;-77
2022/10/21 04:37:24;;;;;;;49.20;22.92;;;;;;;;;;5052690;28;20136;-77
2022/10/21 04:39:50;;;;;;;48.13;22.27;;;;;;;;;;5032463;28;20049;-77
2022/10/21 04:42:16;;;;;;;49.55;23.85;;;;;;;;;;5032242;28;20107;-77
2022/10/21 04:44:42;;;;;;;55.08;23.70;;;;;;;;;;5033351;28;20045;-77
2022/10/21 04:47:08;;;;;;;49.20;22.75;;;;;;;;;;5048161;28;20049;-77
2022/10/21 04:49:34;;;;;;;49.63;22.35;;;;;;;;;;5053676;28;20131;-77
2022/10/21 04:52:00;;;;;;;51.00;22.65;;;;;;;;;;5053721;28;20072;-77
2022/10/21 04:54:26;;;;;;;43.35;22.65;;;;;;;;;;5032922;28;20059;-77
2022/10/21 04:56:52;;;;;;;45.05;22.42;;;;;;;;;;5033916;28;20049;-77
2022/10/21 04:59:18;;;;;;;56.10;23.65;;;;;;;;;;5033111;28;20091;-77
2022/10/21 05:01:44;;;;;;;56.72;23.00;;;;;;;;;;5048683;28;20044;-77
2022/10/21 05:04:10;;;;;;;51.42;22.30;;;;;;;;;;5053484;28;20041;-77
2022/10/21 05:06:36;;;;;;;43.75;21.70;;;;;;;;;;5053524;28;20045;-78
2022/10/21 05:09:02;;;;;;;49.85;21.90;;;;;;;;;;5052895;28;20079;-77
2022/10/21 05:11:29;;;;;;;46.33;21.17;;;;;;;;;;5052440;28;20114;-77
2022/10/21 05:13:55;;;;;;;46.92;21.65;;;;;;;;;;5051709;28;20053;-78
2022/10/21 05:16:22;;;;;;;50.75;22.40;;;;;;;;;;5053027;28;20142;-78
2022/10/21 05:18:48;;;;;;;44.45;21.15;;;;;;;;;;5053669;28;20049;-81
2022/10/21 05:21:15;;;;;;;56.17;22.65;;;;;;;;;;5052864;28;20049;-77
2022/10/21 05:23:41;;;;;;;50.05;21.58;;;;;;;;;;5041813;28;20107;-78
2022/10/21 05:26:07;;;;;;;54.45;21.77;;;;;;;;;;5056848;28;20496;-77
2022/10/21 05:28:33;;;;;;;56.60;21.20;;;;;;;;;;5036945;28;20041;-78
2022/10/21 05:30:59;;;;;;;46.97;21.95;;;;;;;;;;5037121;28;20056;-77
2022/10/21 05:33:25;;;;;;;49.45;22.05;;;;;;;;;;5037110;28;20048;-78
2022/10/21 05:36:00;;;;;;;62.03;23.75;;;;;;;;;;5036791;28;20045;-78
2022/10/21 05:38:27;;;;;;;55.63;23.25;;;;;;;;;;5050358;28;20056;-78
2022/10/21 05:40:53;;;;;;;71.32;24.27;;;;;;;;;;5055629;28;20067;-77
2022/10/21 05:43:19;;;;;;;53.75;22.58;;;;;;;;;;5057034;28;20063;-77
2022/10/21 05:45:45;;;;;;;44.70;21.70;;;;;;;;;;5055197;28;20494;-78
2022/10/21 05:48:11;;;;;;;59.47;23.35;;;;;;;;;;5056417;28;20518;-77
2022/10/21 05:50:37;;;;;;;50.45;23.33;;;;;;;;;;5056364;28;20518;-78
2022/10/21 05:53:03;;;;;;;61.47;23.52;;;;;;;;;;5056354;28;20511;-78
2022/10/21 05:55:29;;;;;;;54.53;24.15;;;;;;;;;;5056705;28;20099;-78
2022/10/21 05:57:55;;;;;;;52.75;24.70;;;;;;;;;;5056387;28;20049;-78
2022/10/21 06:00:21;;;;;;;55.22;24.27;;;;;;;;;;5056430;28;20077;-78
2022/10/21 06:02:47;;;;;;;52.08;24.88;;;;;;;;;;5057044;28;20045;-78
2022/10/21 06:05:13;;;;;;;54.75;25.67;;;;;;;;;;5061490;28;20047;-78
2022/10/21 06:07:39;;;;;;;60.17;25.83;;;;;;;;;;5061678;28;20124;-78
2022/10/21 06:10:06;;;;;;;51.40;24.75;;;;;;;;;;5057321;28;20114;-78
2022/10/21 06:12:32;;;;;;;58.63;25.73;;;;;;;;;;5056534;28;20049;-78
2022/10/21 06:14:58;;;;;;;63.58;26.08;;;;;;;;;;5056105;28;20044;-78
2022/10/21 06:17:24;;;;;;;54.50;25.42;;;;;;;;;;5057067;28;20044;-78
2022/10/21 06:19:50;;;;;;;71.30;27.65;;;;;;;;;;5056568;28;20115;-80
2022/10/21 06:22:16;;;;;;;61.33;26.92;;;;;;;;;;5056360;28;20045;-81
2022/10/21 06:24:42;;;;;;;61.15;27.42;;;;;;;;;;5056234;28;20080;-81
2022/10/21 06:27:08;;;;;;;65.13;27.17;;;;;;;;;;5056119;28;20044;-81
2022/10/21 06:29:34;;;;;;;67.13;28.23;;;;;;;;;;5055940;28;20063;-80
2022/10/21 06:32:00;;;;;;;59.47;27.38;;;;;;;;;;5056133;28;20493;-80
2022/10/21 06:34:26;;;;;;;58.25;27.75;;;;;;;;;;5055871;28;20037;-81
2022/10/21 06:36:52;;;;;;;74.65;28.98;;;;;;;;;;5055461;28;20102;-81
2022/10/21 06:39:18;;;;;;;71.70;29.13;;;;;;;;;;5055524;28;20067;-81
2022/10/21 06:41:44;;;;;;;64.20;27.20;;;;;;;;;;5055686;28;20041;-81
2022/10/21 06:44:10;;;;;;;68.35;30.00;;;;;;;;;;5055532;28;20045;-81
2022/10/21 06:46:36;;;;;;;69.15;28.30;;;;;;;;;;5055711;28;20037;-81
2022/10/21 06:49:02;;;;;;;71.68;30.92;;;;;;;;;;5044701;28;20041;-84
2022/10/21 06:51:28;;;;;;;78.80;31.67;;;;;;;;;;5037549;28;20400;-80
2022/10/21 06:53:56;;;;;;;75.90;31.23;;;;;;;;;;5035712;28;20065;-81
2022/10/21 06:56:22;;;;;;;71.68;31.77;;;;;;;;;;5035591;28;20049;-80
2022/10/21 06:58:49;;;;;;;81.22;32.78;;;;;;;;;;5035566;28;20049;-85
2022/10/21 07:01:22;;;;;;;77.82;32.45;;;;;;;;;;5035594;28;20125;-80
2022/10/21 07:03:48;;;;;;;75.95;31.45;;;;;;;;;;5044723;28;20053;-79
2022/10/21 07:06:15;;;;;;;68.47;30.77;;;;;;;;;;5055382;28;20106;-81
2022/10/21 07:08:42;;;;;;;66.00;29.67;;;;;;;;;;5054963;28;20049;-79
2022/10/21 07:11:09;;;;;;;70.85;30.92;;;;;;;;;;5055120;28;20056;-79
2022/10/21 07:13:35;;;;;;;63.92;29.13;;;;;;;;;;5055099;28;20049;-81
2022/10/21 07:16:05;;;;;;;67.75;28.90;;;;;;;;;;5056198;28;20045;-79
2022/10/21 07:18:32;;;;;;;55.97;27.73;;;;;;;;;;5055652;28;20053;-82
2022/10/21 07:21:09;;;;;;;65.07;29.60;;;;;;;;;;5054993;28;20079;-84
2022/10/21 07:23:35;;;;;;;52.28;27.67;;;;;;;;;;5055184;28;20526;-77
2022/10/21 07:26:02;;;;;;;62.55;29.08;;;;;;;;;;5060809;28;20045;-78
2022/10/21 07:28:28;;;;;;;72.28;29.25;;;;;;;;;;5056567;28;20484;-77
2022/10/21 07:30:54;;;;;;;64.80;29.38;;;;;;;;;;5048661;28;20056;-77
2022/10/21 07:33:20;;;;;;;59.70;28.23;;;;;;;;;;5035355;28;20052;-80
2022/10/21 07:35:46;;;;;;;61.03;29.67;;;;;;;;;;5035765;28;20041;-78
2022/10/21 07:38:13;;;;;;;54.05;27.27;;;;;;;;;;5036572;28;20056;-78
2022/10/21 07:40:40;;;;;;;52.15;25.95;;;;;;;;;;5046199;28;20053;-78
2022/10/21 07:43:06;;;;;;;54.65;26.20;;;;;;;;;;5049347;28;20038;-79
2022/10/21 07:45:32;;;;;;;49.65;25.77;;;;;;;;;;5045853;28;20059;-78
2022/10/21 07:47:58;;;;;;;49.20;25.50;;;;;;;;;;5052005;28;20236;-81
2022/10/21 07:50:24;;;;;;;51.05;25.33;;;;;;;;;;5063131;28;20038;-78
2022/10/21 07:52:50;;;;;;;53.95;26.38;;;;;;;;;;5044726;28;20118;-78
2022/10/21 07:55:17;;;;;;;51.92;25.80;;;;;;;;;;5066728;28;20045;-79
2022/10/21 07:57:43;;;;;;;46.42;25.30;;;;;;;;;;5066592;28;20041;-78
2022/10/21 08:00:10;;;;;;;45.50;24.15;;;;;;;;;;5039107;28;20053;-76
2022/10/21 08:02:37;;;;;;;45.13;24.17;;;;;;;;;;5034527;28;20527;-77
2022/10/21 08:05:03;;;;;;;45.40;23.60;;;;;;;;;;5034581;28;20048;-77
2022/10/21 08:07:33;;;;;;;41.70;22.50;;;;;;;;;;5052978;28;20051;-77
2022/10/21 08:09:59;;;;;;;47.90;24.05;;;;;;;;;;5054749;28;20040;-76
2022/10/21 08:12:25;;;;;;;41.92;23.98;;;;;;;;;;5048710;28;20041;-75
2022/10/21 08:14:51;;;;;;;41.72;22.77;;;;;;;;;;5048283;28;20456;-75
2022/10/21 08:17:17;;;;;;;38.53;23.20;;;;;;;;;;5050522;28;20072;-75
2022/10/21 08:19:43;;;;;;;47.53;24.67;;;;;;;;;;5053954;28;20459;-76
2022/10/21 08:22:09;;;;;;;40.17;24.00;;;;;;;;;;5040021;28;20073;-75
2022/10/21 08:24:36;;;;;;;45.38;24.30;;;;;;;;;;5050967;28;20081;-77
2022/10/21 08:27:03;;;;;;;45.97;23.02;;;;;;;;;;5053972;28;20048;-75
2022/10/21 08:29:29;;;;;;;42.75;22.90;;;;;;;;;;5051548;28;20041;-75
2022/10/21 08:31:55;;;;;;;38.30;21.95;;;;;;;;;;5052897;28;20507;-75
2022/10/21 08:34:21;;;;;;;43.58;22.88;;;;;;;;;;5053297;28;20365;-76
2022/10/21 08:36:47;;;;;;;43.22;23.40;;;;;;;;;;5053943;28;20059;-77
2022/10/21 08:39:13;;;;;;;42.92;23.30;;;;;;;;;;5055260;28;20045;-78
2022/10/21 08:42:01;;;;;;;39.35;23.15;;;;;;;;;;5051015;28;20055;-77
2022/10/21 08:44:27;;;;;;;35.38;20.70;;;;;;;;;;5052263;28;20074;-77
2022/10/21 08:47:05;;;;;;;35.38;21.45;;;;;;;;;;5053642;28;20045;-88
2022/10/21 08:49:36;;;;;;;36.33;21.17;;;;;;;;;;5046783;28;20090;-84
2022/10/21 08:52:04;;;;;;;32.53;19.38;;;;;;;;;;5050406;28;20048;-79
2022/10/21 08:54:51;;;;;;;31.25;19.42;;;;;;;;;;5053636;28;20419;-77
2022/10/21 08:57:17;;;;;;;29.60;18.90;;;;;;;;;;5053433;28;20049;-76
2022/10/21 08:59:43;;;;;;;30.92;18.40;;;;;;;;;;5052594;28;20041;-79
2022/10/21 09:02:12;;;;;;;32.55;18.10;;;;;;;;;;5053031;28;20068;-79
2022/10/21 09:04:52;;;;;;;29.80;19.13;;;;;;;;;;5053218;28;20041;-78
2022/10/21 09:07:27;;;;;;;29.02;18.55;;;;;;;;;;5053562;28;20082;-83
2022/10/21 09:10:01;;;;;;;33.07;18.13;;;;;;;;;;5041416;28;20103;-81
2022/10/21 09:12:45;;;;;;;28.88;18.70;;;;;;;;;;5052861;28;20045;-78
2022/10/21 09:15:14;;;;;;;28.60;18.15;;;;;;;;;;5040346;28;20037;-79
2022/10/21 09:17:47;;;;;;;30.02;18.20;;;;;;;;;;5051215;28;20415;-85
2022/10/21 09:20:32;;;;;;;28.67;18.02;;;;;;;;;;5047215;28;20110;-76
2022/10/21 09:23:17;;;;;;;29.05;17.95;;;;;;;;;;5053847;28;20049;-75
2022/10/21 09:26:03;;;;;;;31.83;18.92;;;;;;;;;;5053162;28;20113;-75
2022/10/21 09:28:30;;;;;;;33.40;18.67;;;;;;;;;;5057397;28;20049;-76
2022/10/21 09:31:03;;;;;;;28.50;17.90;;;;;;;;;;5061737;28;20045;-78
2022/10/21 09:33:31;;;;;;;28.15;17.25;;;;;;;;;;5054059;28;20566;-81
2022/10/21 09:36:00;;;;;;;30.45;18.00;;;;;;;;;;5053775;28;20127;-78
2022/10/21 09:38:28;;;;;;;30.38;16.65;;;;;;;;;;5053003;28;20132;-78
2022/10/21 09:41:01;;;;;;;26.20;16.38;;;;;;;;;;5052982;28;20107;-85
2022/10/21 09:43:28;;;;;;;23.95;16.67;;;;;;;;;;5053204;28;20053;-79
2022/10/21 09:45:54;;;;;;;24.13;15.95;;;;;;;;;;5045397;28;20049;-79
2022/10/21 09:48:29;;;;;;;28.35;17.50;;;;;;;;;;5039509;28;20442;-79
2022/10/21 09:50:57;;;;;;;23.92;15.85;;;;;;;;;;5052841;28;20045;-79
2022/10/21 09:53:26;;;;;;;26.33;16.48;;;;;;;;;;5052604;28;20045;-79
2022/10/21 09:55:58;;;;;;;23.23;15.55;;;;;;;;;;5053335;28;20056;-80
2022/10/21 09:58:50;;;;;;;26.42;16.02;;;;;;;;;;5054377;28;20450;-83
2022/10/21 10:01:17;;;;;;;25.65;15.57;;;;;;;;;;5049458;28;20057;-78
2022/10/21 10:03:48;;;;;;;21.85;14.32;;;;;;;;;;5052726;28;20069;-78
2022/10/21 10:06:29;;;;;;;21.13;14.65;;;;;;;;;;5052609;28;20056;-77
2022/10/21 10:09:04;;;;;;;23.02;14.63;;;;;;;;;;5052568;28;20053;-78
2022/10/21 10:11:31;;;;;;;21.85;14.95;;;;;;;;;;5053430;28;20103;-77
2022/10/21 10:13:57;;;;;;;22.70;14.43;;;;;;;;;;5056942;28;20064;-79
2022/10/21 10:16:26;;;;;;;21.33;13.93;;;;;;;;;;5056303;28;20045;-78
2022/10/21 10:18:53;;;;;;;20.33;14.30;;;;;;;;;;5056532;28;20037;-78
2022/10/21 10:21:21;;;;;;;19.58;13.50;;;;;;;;;;5056083;28;20056;-78
2022/10/21 10:23:54;;;;;;;21.17;14.18;;;;;;;;;;5056017;28;20174;-77
2022/10/21 10:26:22;;;;;;;20.45;13.80;;;;;;;;;;5056850;28;20126;-78
2022/10/21 10:28:50;;;;;;;22.20;13.35;;;;;;;;;;5056101;28;20041;-78
2022/10/21 10:31:22;;;;;;;23.52;15.07;;;;;;;;;;5056156;28;20119;-80
2022/10/21 10:33:53;;;;;;;23.17;14.27;;;;;;;;;;5056045;28;20049;-79
2022/10/21 10:36:25;;;;;;;23.98;15.02;;;;;;;;;;5056471;28;20045;-82
2022/10/21 10:38:55;;;;;;;21.05;13.32;;;;;;;;;;5051055;28;20052;-78
2022/10/21 10:41:28;;;;;;;21.92;13.82;;;;;;;;;;5035765;28;20477;-78
2022/10/21 10:43:55;;;;;;;21.15;13.18;;;;;;;;;;5035891;28;20096;-79
2022/10/21 10:46:21;;;;;;;18.73;12.90;;;;;;;;;;5035734;28;20081;-78
2022/10/21 10:48:49;;;;;;;20.88;12.73;;;;;;;;;;5054843;28;20088;-79
2022/10/21 10:51:26;;;;;;;20.48;13.10;;;;;;;;;;5055426;28;20414;-79
2022/10/21 10:54:00;;;;;;;20.80;13.25;;;;;;;;;;5056055;28;20037;-79
2022/10/21 10:56:32;;;;;;;22.63;13.45;;;;;;;;;;5054125;28;20049;-79
2022/10/21 10:59:06;;;;;;;17.38;12.05;;;;;;;;;;5055338;28;20041;-79
2022/10/21 11:01:36;;;;;;;22.67;12.75;;;;;;;;;;5055478;28;20044;-79
2022/10/21 11:04:10;;;;;;;18.38;12.02;;;;;;;;;;5055462;28;20099;-79
2022/10/21 11:06:59;;;;;;;20.63;12.93;;;;;;;;;;5055328;28;20111;-79
2022/10/21 11:09:25;;;;;;;17.98;11.90;;;;;;;;;;5054787;28;20059;-79
2022/10/21 11:11:55;;;;;;;19.10;11.95;;;;;;;;;;5054918;28;20091;-79
2022/10/21 11:14:21;;;;;;;22.48;13.27;;;;;;;;;;5054537;28;20522;-79
2022/10/21 11:16:59;;;;;;;23.40;13.73;;;;;;;;;;5055148;28;20397;-79
2022/10/21 11:19:44;;;;;;;19.65;12.88;;;;;;;;;;5054805;28;20040;-79
2022/10/21 11:22:10;;;;;;;18.90;11.88;;;;;;;;;;5054760;28;20052;-79
2022/10/21 11:24:58;;;;;;;20.33;13.02;;;;;;;;;;5054873;28;20053;-80
2022/10/21 11:27:33;;;;;;;16.13;11.35;;;;;;;;;;5051855;28;20064;-79
2022/10/21 11:30:05;;;;;;;16.70;10.50;;;;;;;;;;5054854;28;20480;-79
2022/10/21 11:32:40;;;;;;;16.67;11.68;;;;;;;;;;5054972;28;20045;-79
2022/10/21 11:35:15;;;;;;;16.75;10.73;;;;;;;;;;5053466;28;20053;-80
2022/10/21 11:38:00;;;;;;;18.45;11.35;;;;;;;;;;5054505;28;20045;-79
2022/10/21 11:40:45;;;;;;;18.65;10.50;;;;;;;;;;5054749;28;20056;-79
2022/10/21 11:43:22;;;;;;;15.75;10.90;;;;;;;;;;5054941;28;20415;-79
2022/10/21 11:45:57;;;;;;;17.40;10.98;;;;;;;;;;5054834;28;20049;-79
2022/10/21 11:48:33;;;;;;;17.58;10.77;;;;;;;;;;5054575;28;20068;-79
2022/10/21 11:51:18;;;;;;;16.60;11.00;;;;;;;;;;5054538;28;20056;-79
2022/10/21 11:53:44;;;;;;;16.73;10.93;;;;;;;;;;5034254;28;20436;-79
2022/10/21 11:56:24;;;;;;;17.58;11.35;;;;;;;;;;5034661;28;20057;-79
2022/10/21 11:59:00;;;;;;;17.23;10.85;;;;;;;;;;5035076;28;20048;-79
2022/10/21 12:01:37;;;;;;;17.40;10.82;;;;;;;;;;5041935;28;20481;-79
2022/10/21 12:04:21;;;;;;;16.10;11.80;;;;;;;;;;5053036;28;20052;-79
2022/10/21 12:06:52;;;;;;;14.57;10.40;;;;;;;;;;5052679;28;20053;-79
2022/10/21 12:09:39;;;;;;;14.95;10.48;;;;;;;;;;5053879;28;20083;-79
2022/10/21 12:12:09;;;;;;;17.08;10.25;;;;;;;;;;5055970;28;20045;-78
2022/10/21 12:14:41;;;;;;;13.68;9.73;;;;;;;;;;5053715;28;20491;-79
2022/10/21 12:17:11;;;;;;;12.43;9.63;;;;;;;;;;5053704;28;20408;-79
2022/10/21 12:19:37;;;;;;;15.43;9.80;;;;;;;;;;5053878;28;20072;-79
2022/10/21 12:22:03;;;;;;;15.98;9.77;;;;;;;;;;5054871;28;20515;-82
2022/10/21 12:24:38;;;;;;;11.90;8.65;;;;;;;;;;5054097;28;20045;-79
2022/10/21 12:27:23;;;;;;;14.57;9.48;;;;;;;;;;5036595;28;20038;-77
2022/10/21 12:29:59;;;;;;;12.13;8.43;;;;;;;;;;5046601;28;20037;-78
2022/10/21 12:32:25;;;;;;;14.68;8.98;;;;;;;;;;5053763;28;20439;-77
2022/10/21 12:34:51;;;;;;;13.15;8.55;;;;;;;;;;5035947;28;20049;-79
2022/10/21 12:37:35;;;;;;;14.52;8.48;;;;;;;;;;5046711;28;20138;-78
2022/10/21 12:40:10;;;;;;;12.65;7.45;;;;;;;;;;5046533;28;20535;-78
2022/10/21 12:42:36;;;;;;;13.90;8.20;;;;;;;;;;5052726;28;20144;-78
2022/10/21 12:45:03;;;;;;;13.68;8.32;;;;;;;;;;5032658;28;20385;-78
2022/10/21 12:47:33;;;;;;;15.10;8.48;;;;;;;;;;5033376;28;20401;-78
2022/10/21 12:50:07;;;;;;;13.82;8.30;;;;;;;;;;5041222;28;20107;-80
2022/10/21 12:52:37;;;;;;;14.05;7.70;;;;;;;;;;5034330;28;20103;-79
2022/10/21 12:55:07;;;;;;;15.95;9.00;;;;;;;;;;5037779;28;20099;-79
2022/10/21 12:57:38;;;;;;;11.85;8.10;;;;;;;;;;5037340;28;20516;-79
2022/10/21 13:00:36;;;;;;;10.82;7.32;;;;;;;;;;5041063;28;20041;-79
2022/10/21 13:03:11;;;;;;;11.50;7.47;;;;;;;;;;5053816;28;20094;-80
2022/10/21 13:05:37;;;;;;;12.07;7.53;;;;;;;;;;5054359;28;20052;-79
2022/10/21 13:08:21;;;;;;;13.48;7.75;;;;;;;;;;5053568;28;20468;-80
2022/10/21 13:11:05;;;;;;;12.35;7.20;;;;;;;;;;5053762;28;20124;-80
2022/10/21 13:13:34;;;;;;;13.35;7.43;;;;;;;;;;5053353;28;20041;-79
2022/10/21 13:16:15;;;;;;;11.68;7.38;;;;;;;;;;5053104;28;20049;-79
2022/10/21 13:18:53;;;;;;;11.73;7.75;;;;;;;;;;5038120;28;20041;-80
2022/10/21 13:21:24;;;;;;;8.98;6.85;;;;;;;;;;5032021;28;20092;-82
2022/10/21 13:23:51;;;;;;;11.20;7.70;;;;;;;;;;5032536;28;20119;-79
2022/10/21 13:26:23;;;;;;;10.77;7.25;;;;;;;;;;5043546;28;20396;-79
2022/10/21 13:28:56;;;;;;;16.20;7.60;;;;;;;;;;5052518;28;20049;-79
2022/10/21 13:31:22;;;;;;;12.80;8.45;;;;;;;;;;5054065;28;20037;-85
2022/10/21 13:33:51;;;;;;;14.05;8.85;;;;;;;;;;5052172;28;20045;-81
2022/10/21 13:36:27;;;;;;;13.35;9.35;;;;;;;;;;5054311;28;20045;-79
2022/10/21 13:38:54;;;;;;;12.57;8.18;;;;;;;;;;5050343;28;20048;-80
2022/10/21 13:41:28;;;;;;;13.18;7.97;;;;;;;;;;5053341;28;20060;-80
2022/10/21 13:43:56;;;;;;;11.38;7.90;;;;;;;;;;5052968;28;20048;-80
2022/10/21 13:46:34;;;;;;;11.13;7.75;;;;;;;;;;5055282;28;20045;-80
2022/10/21 13:49:00;;;;;;;12.43;8.00;;;;;;;;;;5056823;28;20041;-80
2022/10/21 13:51:31;;;;;;;10.20;7.30;;;;;;;;;;5056567;28;20480;-80
2022/10/21 13:53:58;;;;;;;9.50;7.30;;;;;;;;;;5056835;28;20045;-80
2022/10/21 13:56:29;;;;;;;12.43;7.32;;;;;;;;;;5056848;28;20041;-80
2022/10/21 13:58:55;;;;;;;11.43;7.63;;;;;;;;;;5056746;28;20552;-80
2022/10/21 14:01:29;;;;;;;9.98;7.13;;;;;;;;;;5054071;28;20084;-80
2022/10/21 14:04:10;;;;;;;11.27;7.97;;;;;;;;;;5056558;28;20147;-80
2022/10/21 14:06:38;;;;;;;11.23;7.80;;;;;;;;;;5057217;28;20079;-80
2022/10/21 14:09:08;;;;;;;13.25;7.80;;;;;;;;;;5056537;28;20053;-80
2022/10/21 14:11:40;;;;;;;11.45;8.18;;;;;;;;;;5056218;28;20084;-80
2022/10/21 14:14:07;;;;;;;13.07;8.75;;;;;;;;;;5056466;28;20045;-80
2022/10/21 14:16:46;;;;;;;11.98;8.70;;;;;;;;;;5056307;28;20045;-80
2022/10/21 14:19:25;;;;;;;15.75;9.30;;;;;;;;;;5055903;28;20476;-80
2022/10/21 14:21:52;;;;;;;14.48;9.15;;;;;;;;;;5056228;28;20053;-80
2022/10/21 14:24:27;;;;;;;13.85;8.98;;;;;;;;;;5056134;28;20051;-79
2022/10/21 14:26:53;;;;;;;14.30;9.55;;;;;;;;;;5056021;28;20124;-84
2022/10/21 14:29:20;;;;;;;15.52;9.57;;;;;;;;;;5056480;28;20142;-77
2022/10/21 14:31:46;;;;;;;13.48;9.07;;;;;;;;;;5056079;28;20041;-77